createdAt,value
2023-04-18T00:00:52.579Z,36.2360
2023-04-18T00:01:54.996Z,36.2250
2023-04-18T00:02:55.266Z,36.2330
2023-04-18T00:03:57.474Z,36.2250
2023-04-18T00:04:59.773Z,36.2120
2023-04-18T00:06:01.873Z,36.2270
2023-04-18T00:07:04.117Z,36.2270
2023-04-18T00:08:06.343Z,36.2270
2023-04-18T00:09:08.662Z,36.2060
2023-04-18T00:10:08.733Z,36.1950
2023-04-18T00:11:10.998Z,36.1890
2023-04-18T00:12:13.322Z,36.1550
2023-04-18T00:13:15.588Z,36.1490
2023-04-18T00:14:17.840Z,36.1660
2023-04-18T00:15:20.123Z,36.1600
2023-04-18T00:16:22.445Z,36.1740
2023-04-18T00:17:22.613Z,36.1870
2023-04-18T00:18:24.830Z,36.2080
2023-04-18T00:25:38.549Z,36.7200
2023-04-18T00:26:40.780Z,36.5620
2023-04-18T00:27:43.083Z,36.4600
2023-04-18T00:28:45.566Z,36.4170
2023-04-18T00:29:45.564Z,36.3790
2023-04-18T00:30:47.910Z,36.3730
2023-04-18T00:31:50.146Z,36.3470
2023-04-18T00:32:52.447Z,36.2950
2023-04-18T00:33:54.696Z,36.2720
2023-04-18T00:34:56.985Z,36.2490
2023-04-18T00:46:12.555Z,37.0780
2023-04-18T00:47:13.502Z,36.8460
2023-04-18T00:48:14.610Z,36.6300
2023-04-18T00:49:16.815Z,36.6500
2023-04-18T00:50:19.059Z,36.7020
2023-04-18T00:51:20.333Z,36.6130
2023-04-18T00:52:22.592Z,36.5090
2023-04-18T00:53:24.893Z,36.4650
2023-04-18T00:54:25.039Z,36.4130
2023-04-18T00:55:27.346Z,36.3640
2023-04-18T00:56:29.698Z,36.3260
2023-04-18T00:57:31.939Z,36.3090
2023-04-18T00:58:32.118Z,36.2940
2023-04-18T00:59:34.423Z,36.2320
2023-04-18T01:00:36.724Z,36.2430
2023-04-18T01:01:39.199Z,36.1960
2023-04-18T01:02:41.389Z,36.1790
2023-04-18T01:03:43.858Z,36.1550
2023-04-18T01:13:54.608Z,36.8150
2023-04-18T01:14:56.787Z,36.6230
2023-04-18T01:15:59.104Z,36.5200
2023-04-18T01:17:01.382Z,36.4330
2023-04-18T01:18:03.701Z,36.3730
2023-04-18T01:19:03.817Z,36.3370
2023-04-18T01:20:06.113Z,36.3020
2023-04-18T01:21:08.390Z,36.2680
2023-04-18T01:22:10.684Z,36.2330
2023-04-18T01:36:59.949Z,36.9070
2023-04-18T01:38:02.145Z,36.7060
2023-04-18T01:39:02.234Z,36.5760
2023-04-18T01:40:04.566Z,36.5280
2023-04-18T01:41:06.781Z,36.4780
2023-04-18T01:42:09.057Z,36.4730
2023-04-18T01:43:11.225Z,36.4280
2023-04-18T01:44:13.672Z,36.4030
2023-04-18T01:45:15.632Z,36.3710
2023-04-18T01:46:17.843Z,36.3020
2023-04-18T01:47:20.094Z,36.3020
2023-04-18T01:48:22.278Z,36.3080
2023-04-18T01:49:24.498Z,36.2670
2023-04-18T01:50:26.732Z,36.2550
2023-04-18T01:51:26.816Z,36.2660
2023-04-18T01:52:29.184Z,36.2370
2023-04-18T01:53:31.292Z,36.2320
2023-04-18T01:54:33.536Z,36.2440
2023-04-18T01:55:35.801Z,36.2440
2023-04-18T01:56:38.054Z,36.2320
2023-04-18T01:57:40.329Z,36.2240
2023-04-18T01:58:42.581Z,36.2240
2023-04-18T01:59:44.854Z,36.2380
2023-04-18T02:00:45.034Z,36.2670
2023-04-18T02:01:47.296Z,36.2380
2023-04-18T02:02:49.682Z,36.2070
2023-04-18T02:03:51.996Z,36.1900
2023-04-18T02:04:54.090Z,36.2240
2023-04-18T02:05:56.370Z,36.2020
2023-04-18T02:06:56.526Z,36.2190
2023-04-18T02:07:58.856Z,36.2190
2023-04-18T02:09:01.071Z,36.1970
2023-04-18T02:10:03.346Z,36.1970
2023-04-18T02:11:05.596Z,36.1970
2023-04-18T02:12:07.798Z,36.2190
2023-04-18T02:13:09.957Z,36.2430
2023-04-18T02:14:12.363Z,36.2370
2023-04-18T02:15:14.461Z,36.2500
2023-04-18T02:16:14.580Z,36.2670
2023-04-18T02:17:16.809Z,36.2190
2023-04-18T02:18:19.095Z,36.2490
2023-04-18T02:19:21.303Z,36.2430
2023-04-18T02:20:23.484Z,36.2450
2023-04-18T02:21:25.687Z,36.2600
2023-04-18T02:22:27.923Z,36.2720
2023-04-18T02:23:30.197Z,36.2770
2023-04-18T02:24:32.395Z,36.3020
2023-04-18T02:25:34.707Z,36.3020
2023-04-18T02:26:37.003Z,36.3080
2023-04-18T02:27:37.120Z,36.2890
2023-04-18T02:28:39.408Z,36.3080
2023-04-18T02:29:41.668Z,36.3020
2023-04-18T02:30:43.890Z,36.2770
2023-04-18T02:31:46.224Z,36.2940
2023-04-18T02:32:48.585Z,36.3140
2023-04-18T02:33:50.810Z,36.3250
2023-04-18T02:34:50.938Z,36.3080
2023-04-18T02:35:53.200Z,36.3140
2023-04-18T02:36:55.454Z,36.3430
2023-04-18T02:37:57.753Z,36.3080
2023-04-18T02:39:00.096Z,36.3250
2023-04-18T02:40:02.310Z,36.3480
2023-04-18T02:41:04.593Z,36.3590
2023-04-18T02:42:06.901Z,36.3480
2023-04-18T02:43:07.037Z,36.3820
2023-04-18T02:44:09.339Z,36.3370
2023-04-18T02:45:11.655Z,36.3200
2023-04-18T02:46:13.943Z,36.3310
2023-04-18T02:47:16.149Z,36.3590
2023-04-18T02:48:18.540Z,36.3420
2023-04-18T02:49:18.657Z,36.3360
2023-04-18T02:51:51.212Z,36.3920
2023-04-18T02:52:53.403Z,36.3750
2023-04-18T02:53:55.657Z,36.4040
2023-04-18T02:54:57.978Z,36.3930
2023-04-18T02:56:00.232Z,36.4080
2023-04-18T02:57:02.496Z,36.3980
2023-04-18T02:58:04.741Z,36.3860
2023-04-18T02:59:06.973Z,36.3480
2023-04-18T03:00:09.230Z,36.3120
2023-04-18T03:01:09.337Z,36.2910
2023-04-18T03:02:11.539Z,36.2950
2023-04-18T03:03:13.730Z,36.2830
2023-04-18T03:04:16.230Z,36.3120
2023-04-18T03:05:18.143Z,36.3180
2023-04-18T03:06:20.338Z,36.3270
2023-04-18T03:07:22.533Z,36.3120
2023-04-18T03:08:24.715Z,36.2950
2023-04-18T03:09:26.990Z,36.3060
2023-04-18T03:10:29.309Z,36.3060
2023-04-18T03:11:31.494Z,36.3410
2023-04-18T03:12:33.718Z,36.3410
2023-04-18T03:13:35.962Z,36.3450
2023-04-18T03:14:36.060Z,36.3790
2023-04-18T03:15:38.340Z,36.3680
2023-04-18T03:16:40.511Z,36.3790
2023-04-18T03:17:42.791Z,36.3530
2023-04-18T03:18:44.994Z,36.3330
2023-04-18T03:19:47.247Z,36.3100
2023-04-18T03:20:49.517Z,36.2870
2023-04-18T03:21:51.698Z,36.3170
2023-04-18T03:22:53.936Z,36.3340
2023-04-18T03:23:56.161Z,36.3220
2023-04-18T03:24:56.262Z,36.2990
2023-04-18T03:25:58.526Z,36.3110
2023-04-18T03:27:00.738Z,36.2930
2023-04-18T03:28:02.969Z,36.2660
2023-04-18T03:29:05.170Z,36.2820
2023-04-18T03:30:07.420Z,36.2990
2023-04-18T03:31:09.762Z,36.3000
2023-04-18T03:32:11.893Z,36.3170
2023-04-18T03:33:14.067Z,36.3170
2023-04-18T03:34:16.315Z,36.2930
2023-04-18T03:35:18.600Z,36.2690
2023-04-18T03:36:18.714Z,36.2570
2023-04-18T03:37:20.892Z,36.2740
2023-04-18T03:38:23.164Z,36.2520
2023-04-18T03:39:25.418Z,36.2520
2023-04-18T03:40:27.705Z,36.2470
2023-04-18T03:41:30.098Z,36.2880
2023-04-18T03:42:32.188Z,36.3000
2023-04-18T03:43:34.441Z,36.2940
2023-04-18T03:44:36.696Z,36.3000
2023-04-18T03:45:38.943Z,36.2980
2023-04-18T03:46:39.099Z,36.3050
2023-04-18T03:47:41.349Z,36.3000
2023-04-18T03:48:43.475Z,36.2940
2023-04-18T03:49:45.702Z,36.3210
2023-04-18T03:50:47.953Z,36.3270
2023-04-18T03:51:50.226Z,36.3710
2023-04-18T03:52:52.512Z,36.3590
2023-04-18T03:53:54.817Z,36.3760
2023-04-18T03:54:57.132Z,36.3800
2023-04-18T03:55:59.366Z,36.4090
2023-04-18T03:57:01.700Z,36.3750
2023-04-18T03:58:03.907Z,36.3840
2023-04-18T03:59:06.175Z,36.4410
2023-04-18T04:00:08.417Z,36.4070
2023-04-18T04:01:10.639Z,36.4460
2023-04-18T04:02:12.951Z,36.4840
2023-04-18T04:03:15.173Z,36.5210
2023-04-18T04:04:17.706Z,36.5550
2023-04-18T04:05:17.417Z,36.5420
2023-04-18T04:06:19.636Z,36.5840
2023-04-18T04:07:21.857Z,36.5910
2023-04-18T04:08:24.352Z,36.6240
2023-04-18T04:09:26.344Z,36.6670
2023-04-18T04:10:28.578Z,36.6090
2023-04-18T04:11:30.828Z,36.6010
2023-04-18T04:12:33.193Z,36.6180
2023-04-18T04:13:35.291Z,36.6670
2023-04-18T04:14:37.519Z,36.6970
2023-04-18T04:15:39.776Z,36.7260
2023-04-18T04:16:39.897Z,36.7320
2023-04-18T04:17:42.148Z,36.7760
2023-04-18T04:18:44.349Z,36.8420
2023-04-18T04:19:46.606Z,36.8880
2023-04-18T04:20:48.866Z,36.9450
2023-04-18T04:21:51.080Z,36.9930
2023-04-18T04:22:53.288Z,36.9940
2023-04-18T04:23:55.498Z,37.0080
2023-04-18T04:24:57.787Z,36.9860
2023-04-18T04:25:59.921Z,37.0120
2023-04-18T04:27:02.121Z,37.0230
2023-04-18T04:28:02.287Z,37.0180
2023-04-18T04:29:04.478Z,37.0520
2023-04-18T04:30:06.729Z,37.1050
2023-04-18T04:31:08.976Z,37.1700
2023-04-18T04:32:11.249Z,37.1900
2023-04-18T04:33:13.462Z,37.2350
2023-04-18T04:34:15.901Z,37.2750
2023-04-18T04:35:17.964Z,37.2900
2023-04-18T04:36:20.211Z,37.3430
2023-04-18T04:37:22.442Z,37.3540
2023-04-18T04:38:24.665Z,37.3600
2023-04-18T04:39:24.684Z,37.3880
2023-04-18T04:40:26.903Z,37.4060
2023-04-18T04:41:29.153Z,37.4300
2023-04-18T04:42:31.422Z,37.4470
2023-04-18T04:43:33.677Z,37.5010
2023-04-18T04:44:35.919Z,37.5240
2023-04-18T04:45:38.195Z,37.5780
2023-04-18T04:46:40.410Z,37.5710
2023-04-18T04:47:42.709Z,37.6140
2023-04-18T04:48:45.001Z,37.6600
2023-04-18T04:49:47.139Z,37.6900
2023-04-18T04:50:47.244Z,37.6880
2023-04-18T04:51:49.520Z,37.6770
2023-04-18T04:52:51.775Z,37.6950
2023-04-18T04:53:54.063Z,37.7070
2023-04-18T04:54:56.274Z,37.7010
2023-04-18T04:55:58.528Z,37.7130
2023-04-18T04:57:00.755Z,37.7530
2023-04-18T04:58:03.017Z,37.7470
2023-04-18T04:59:03.412Z,37.7470
2023-04-18T05:00:04.333Z,37.7670
2023-04-18T05:01:05.648Z,37.8130
2023-04-18T05:02:08.033Z,37.8260
2023-04-18T05:03:10.533Z,37.8110
2023-04-18T05:04:10.508Z,37.8130
2023-04-18T05:05:12.685Z,37.8170
2023-04-18T05:06:14.965Z,37.7960
2023-04-18T05:07:17.241Z,37.8290
2023-04-18T05:08:19.488Z,37.7940
2023-04-18T05:09:21.780Z,37.7940
2023-04-18T05:10:24.041Z,37.7940
2023-04-18T05:11:26.310Z,37.7730
2023-04-18T05:12:26.455Z,37.7610
2023-04-18T05:13:28.741Z,37.2100
2023-04-18T05:14:31.091Z,37.1980
2023-04-18T05:15:33.296Z,37.5840
2023-04-18T05:16:35.648Z,37.5780
2023-04-18T05:17:37.920Z,37.4820
2023-04-18T05:18:40.152Z,37.6730
2023-04-18T05:19:42.429Z,37.8230
2023-04-18T05:20:42.546Z,37.8290
2023-04-18T05:21:44.825Z,37.8520
2023-04-18T05:22:47.117Z,37.8250
2023-04-18T05:23:49.410Z,37.7920
2023-04-18T05:24:51.723Z,37.7460
2023-04-18T05:25:53.961Z,37.7340
2023-04-18T05:26:56.247Z,37.7190
2023-04-18T05:27:56.358Z,37.7290
2023-04-18T05:28:58.623Z,37.7190
2023-04-18T05:30:00.903Z,37.6860
2023-04-18T05:31:03.187Z,37.6650
2023-04-18T05:32:05.392Z,37.6330
2023-04-18T05:33:07.737Z,37.6360
2023-04-18T05:34:09.890Z,37.6140
2023-04-18T05:35:12.128Z,37.6000
2023-04-18T05:36:12.234Z,37.6040
2023-04-18T05:37:14.498Z,37.6270
2023-04-18T05:38:16.744Z,37.6210
2023-04-18T05:39:19.016Z,37.6310
2023-04-18T05:40:21.299Z,37.6210
2023-04-18T05:41:23.538Z,37.5920
2023-04-18T05:42:25.777Z,37.5920
2023-04-18T05:43:28.022Z,37.5620
2023-04-18T05:44:30.251Z,37.5680
2023-04-18T05:45:32.535Z,37.5730
2023-04-18T05:46:32.674Z,37.5620
2023-04-18T05:47:34.897Z,37.5620
2023-04-18T05:48:37.081Z,37.5860
2023-04-18T05:49:39.316Z,37.3870
2023-04-18T05:50:41.597Z,37.0130
2023-04-18T05:51:43.861Z,36.6920
2023-04-18T05:52:46.163Z,36.6280
2023-04-18T05:53:48.486Z,36.6550
2023-04-18T05:54:48.668Z,36.6680
2023-04-18T05:55:50.987Z,36.7040
2023-04-18T05:56:53.281Z,36.7780
2023-04-18T05:57:55.587Z,36.8340
2023-04-18T05:58:57.892Z,36.9260
2023-04-18T06:00:00.202Z,36.8540
2023-04-18T06:01:00.362Z,36.7680
2023-04-18T06:02:02.688Z,36.9660
2023-04-18T06:03:05.259Z,37.3780
2023-04-18T06:04:07.275Z,37.5750
2023-04-18T06:05:09.594Z,37.5720
2023-04-18T06:06:11.772Z,37.5300
2023-04-18T06:07:11.866Z,37.4640
2023-04-18T06:08:14.244Z,37.3920
2023-04-18T06:09:16.475Z,37.3130
2023-04-18T06:10:18.785Z,37.2730
2023-04-18T06:11:21.088Z,37.2170
2023-04-18T06:12:23.342Z,37.1750
2023-04-18T06:13:25.606Z,37.1540
2023-04-18T06:14:27.810Z,37.1400
2023-04-18T06:15:30.064Z,37.0900
2023-04-18T06:16:30.298Z,37.0580
2023-04-18T06:17:32.500Z,37.0190
2023-04-18T06:19:32.828Z,37.0850
2023-04-18T06:20:35.015Z,37.0460
2023-04-18T06:21:37.223Z,36.9950
2023-04-18T06:22:39.449Z,36.9680
2023-04-18T06:23:39.563Z,36.9510
2023-04-18T06:24:41.791Z,36.9270
2023-04-18T06:25:43.981Z,36.9120
2023-04-18T06:26:46.250Z,36.9270
2023-04-18T06:27:48.460Z,36.9000
2023-04-18T06:28:50.697Z,36.9000
2023-04-18T06:29:52.907Z,36.8580
2023-04-18T06:30:55.142Z,36.8400
2023-04-18T06:31:59.065Z,36.8400
2023-04-18T06:32:59.680Z,36.8350
2023-04-18T06:34:01.799Z,36.8010
2023-04-18T06:35:04.014Z,36.8130
2023-04-18T06:36:06.238Z,36.8290
2023-04-18T06:37:06.364Z,36.8220
2023-04-18T06:38:08.515Z,36.8460
2023-04-18T06:39:10.716Z,36.8190
2023-04-18T06:40:12.902Z,36.8220
2023-04-18T06:41:15.081Z,36.8360
2023-04-18T06:42:17.351Z,36.8160
2023-04-18T06:43:19.579Z,36.8130
2023-04-18T06:44:21.810Z,36.8310
2023-04-18T06:45:24.072Z,36.8160
2023-04-18T06:46:26.353Z,36.8250
2023-04-18T06:47:28.695Z,36.8190
2023-04-18T06:48:28.709Z,36.8350
2023-04-18T06:49:31.035Z,36.8160
2023-04-18T06:50:33.337Z,36.8010
2023-04-18T06:51:35.598Z,36.7850
2023-04-18T06:52:35.768Z,36.8010
2023-04-18T06:53:38.106Z,36.8020
2023-04-18T06:54:40.402Z,36.7820
2023-04-18T06:55:42.733Z,36.7850
2023-04-18T06:56:45.062Z,36.7850
2023-04-18T06:57:47.416Z,36.7740
2023-04-18T06:58:49.733Z,36.7550
2023-04-18T06:59:49.862Z,36.7610
2023-04-18T07:00:52.204Z,36.7820
2023-04-18T07:01:54.463Z,36.7950
2023-04-18T07:02:57.067Z,36.7880
2023-04-18T07:03:59.226Z,36.7680
2023-04-18T07:05:01.300Z,36.7850
2023-04-18T07:06:03.556Z,36.7610
2023-04-18T07:07:05.822Z,36.7880
2023-04-18T07:08:06.033Z,36.7850
2023-04-18T07:09:08.311Z,36.7650
2023-04-18T07:10:10.659Z,36.7820
2023-04-18T07:11:13.001Z,36.7490
2023-04-18T07:12:15.337Z,36.7820
2023-04-18T07:13:15.542Z,36.7760
2023-04-18T07:14:17.851Z,36.7790
2023-04-18T07:15:20.145Z,36.7700
2023-04-18T07:16:22.479Z,36.7650
2023-04-18T07:17:24.795Z,36.7880
2023-04-18T07:18:37.457Z,36.7950
2023-04-18T07:19:27.262Z,36.8080
2023-04-18T07:20:29.654Z,36.7820
2023-04-18T07:21:31.898Z,36.7740
2023-04-18T07:22:34.205Z,36.7550
2023-04-18T07:23:36.524Z,36.7490
2023-04-18T07:24:38.760Z,36.7430
2023-04-18T07:25:40.978Z,36.7380
2023-04-18T07:26:41.038Z,36.7280
2023-04-18T07:27:43.316Z,36.7490
2023-04-18T07:28:45.566Z,36.7410
2023-04-18T07:29:47.718Z,36.7220
2023-04-18T07:30:50.050Z,36.7200
2023-04-18T07:31:52.269Z,36.7010
2023-04-18T07:32:54.567Z,36.6980
2023-04-18T07:33:57.003Z,36.6930
2023-04-18T07:34:59.099Z,36.6890
2023-04-18T07:35:59.231Z,36.6810
2023-04-18T07:37:01.531Z,36.6600
2023-04-18T07:38:03.806Z,36.6420
2023-04-18T07:39:06.051Z,36.6300
2023-04-18T07:41:00.265Z,36.7010
2023-04-18T07:42:00.322Z,36.7110
2023-04-18T07:43:02.235Z,36.6870
2023-04-18T07:44:04.405Z,36.6870
2023-04-18T07:45:04.435Z,36.6830
2023-04-18T07:46:06.584Z,36.6550
2023-04-18T07:47:08.743Z,36.6330
2023-04-18T07:48:10.990Z,36.6330
2023-04-18T07:49:13.593Z,36.6300
2023-04-18T07:50:15.391Z,36.6270
2023-04-18T07:51:17.578Z,36.6450
2023-04-18T07:52:19.796Z,36.6080
2023-04-18T07:53:22.035Z,36.5790
2023-04-18T07:54:24.218Z,36.5970
2023-04-18T07:55:26.538Z,36.5810
2023-04-18T07:56:28.561Z,36.5580
2023-04-18T07:57:30.815Z,36.5360
2023-04-18T07:58:30.941Z,36.5190
2023-04-18T07:59:33.234Z,36.5470
2023-04-18T08:00:35.554Z,36.5580
2023-04-18T08:01:37.776Z,36.5810
2023-04-18T08:02:40.205Z,36.5360
2023-04-18T08:03:42.545Z,36.5130
2023-04-18T08:04:45.268Z,36.4820
2023-04-18T08:05:44.910Z,36.4760
2023-04-18T08:06:47.039Z,36.4760
2023-04-18T08:07:49.326Z,36.4550
2023-04-18T08:08:51.581Z,36.4490
2023-04-18T08:09:53.851Z,36.4490
2023-04-18T08:10:56.158Z,36.4700
2023-04-18T08:11:58.397Z,36.4310
2023-04-18T08:13:00.680Z,36.3950
2023-04-18T08:14:00.837Z,36.4130
2023-04-18T08:15:03.109Z,36.3590
2023-04-18T08:16:05.411Z,36.3530
2023-04-18T08:17:05.537Z,36.3720
2023-04-18T08:18:07.898Z,36.3470
2023-04-18T08:19:10.105Z,36.3320
2023-04-18T08:20:10.306Z,36.3210
2023-04-18T08:21:12.556Z,36.3450
2023-04-18T08:22:14.813Z,36.3180
2023-04-18T08:23:17.080Z,36.2860
2023-04-18T08:24:19.347Z,36.2690
2023-04-18T08:25:21.637Z,36.2530
2023-04-18T08:26:23.897Z,36.2570
2023-04-18T08:27:26.131Z,36.2800
2023-04-18T08:28:28.370Z,36.2840
2023-04-18T08:29:28.489Z,36.2900
2023-04-18T08:30:30.791Z,36.2900
2023-04-18T08:31:33.159Z,36.2690
2023-04-18T08:32:35.359Z,36.2840
2023-04-18T08:33:37.615Z,36.3130
2023-04-18T08:34:39.910Z,36.2800
2023-04-18T08:35:42.242Z,36.2630
2023-04-18T08:36:42.519Z,36.2510
2023-04-18T08:37:44.687Z,36.2780
2023-04-18T08:38:46.984Z,36.3010
2023-04-18T08:39:49.269Z,36.2900
2023-04-18T08:40:51.580Z,36.3130
2023-04-18T08:41:53.902Z,36.2690
2023-04-18T08:42:56.136Z,36.2530
2023-04-18T08:43:57.220Z,36.2250
2023-04-18T08:44:58.514Z,36.2150
2023-04-18T08:46:00.897Z,36.2150
2023-04-18T08:47:03.110Z,36.2040
2023-04-18T08:48:05.376Z,36.2040
2023-04-18T08:49:07.754Z,36.2010
2023-04-18T08:50:09.933Z,36.1980
2023-04-18T08:51:10.129Z,36.1840
2023-04-18T08:52:12.405Z,36.1780
2023-04-18T08:53:14.645Z,36.1200
2023-04-18T08:54:16.921Z,35.9880
2023-04-18T08:55:19.236Z,35.8480
2023-04-18T08:56:21.500Z,35.9580
2023-04-18T08:57:23.819Z,36.0520
2023-04-18T08:58:23.930Z,36.0840
2023-04-18T08:59:26.243Z,36.1630
2023-04-18T09:00:28.563Z,36.1570
2023-04-18T09:02:15.986Z,36.1540
2023-04-18T09:03:18.182Z,36.0640
2023-04-18T09:04:20.357Z,36.0530
2023-04-18T09:05:22.547Z,36.0320
2023-04-18T09:06:22.666Z,36.0780
2023-04-18T09:07:24.915Z,36.1210
2023-04-18T09:08:27.360Z,36.1670
2023-04-18T09:09:29.470Z,36.2080
2023-04-18T09:10:31.758Z,36.1690
2023-04-18T09:11:34.037Z,36.1440
2023-04-18T09:12:36.324Z,36.1190
2023-04-18T09:13:36.460Z,36.0740
2023-04-18T09:14:38.692Z,36.0230
2023-04-18T09:15:40.946Z,36.0120
2023-04-18T09:16:43.244Z,35.9710
2023-04-18T09:17:45.607Z,35.9450
2023-04-18T09:18:47.755Z,35.9230
2023-04-18T09:19:49.971Z,35.8660
2023-04-18T09:20:52.234Z,35.7990
2023-04-18T09:21:54.496Z,35.7740
2023-04-18T09:22:54.576Z,35.6820
2023-04-18T09:23:56.852Z,35.6790
2023-04-18T09:24:59.064Z,35.6600
2023-04-18T09:26:01.453Z,35.5960
2023-04-18T09:27:03.586Z,35.5800
2023-04-18T09:28:05.868Z,35.5840
2023-04-18T09:29:08.185Z,35.6140
2023-04-18T09:30:10.428Z,35.6010
2023-04-18T09:31:12.772Z,35.6600
2023-04-18T09:32:12.829Z,35.6780
2023-04-18T09:33:15.086Z,35.6390
2023-04-18T09:34:17.386Z,35.6100
2023-04-18T09:35:19.654Z,35.5720
2023-04-18T09:36:21.911Z,35.5470
2023-04-18T09:37:24.170Z,35.5580
2023-04-18T09:38:26.405Z,35.5100
2023-04-18T09:39:26.549Z,35.5230
2023-04-18T09:40:28.744Z,35.5180
2023-04-18T09:41:31.005Z,35.5190
2023-04-18T09:42:33.273Z,35.5520
2023-04-18T09:43:35.549Z,35.5630
2023-04-18T09:44:37.809Z,35.5580
2023-04-18T09:45:39.985Z,35.5750
2023-04-18T09:46:43.303Z,35.5870
2023-04-18T09:47:44.495Z,35.5930
2023-04-18T09:48:46.704Z,35.5950
2023-04-18T09:49:48.978Z,35.5330
2023-04-18T09:50:49.067Z,35.4870
2023-04-18T09:51:51.341Z,35.4970
2023-04-18T09:52:53.578Z,35.4440
2023-04-18T09:53:55.821Z,35.4500
2023-04-18T09:54:58.080Z,35.4800
2023-04-18T09:56:00.332Z,35.4550
2023-04-18T09:57:02.538Z,35.4150
2023-04-18T09:58:04.736Z,35.4430
2023-04-18T09:59:06.954Z,35.4520
2023-04-18T10:00:09.239Z,35.4150
2023-04-18T10:01:11.417Z,35.4050
2023-04-18T10:02:11.501Z,35.3650
2023-04-18T10:03:13.826Z,35.3520
2023-04-18T10:04:16.221Z,35.4150
2023-04-18T10:05:20.758Z,35.4150
2023-04-18T10:06:20.373Z,35.4480
2023-04-18T10:07:22.592Z,35.4690
2023-04-18T10:08:24.834Z,35.5020
2023-04-18T10:09:27.015Z,35.4900
2023-04-18T10:10:29.269Z,35.4840
2023-04-18T10:11:31.453Z,35.4750
2023-04-18T10:12:31.535Z,35.5250
2023-04-18T10:13:33.746Z,35.5390
2023-04-18T10:14:35.970Z,35.5220
2023-04-18T10:15:38.302Z,35.5250
2023-04-18T10:16:40.462Z,35.5640
2023-04-18T10:17:52.580Z,35.5980
2023-04-18T10:18:44.773Z,35.6030
2023-04-18T10:19:46.978Z,35.5870
2023-04-18T10:20:49.247Z,35.5770
2023-04-18T10:21:51.416Z,35.5600
2023-04-18T10:22:51.487Z,35.5680
2023-04-18T10:23:53.720Z,35.5200
2023-04-18T10:24:55.923Z,35.5050
2023-04-18T10:25:58.222Z,35.5130
2023-04-18T10:27:00.336Z,35.5220
2023-04-18T10:28:02.560Z,35.5050
2023-04-18T10:29:04.829Z,35.5100
2023-04-18T10:30:08.639Z,35.5160
2023-04-18T10:31:09.401Z,35.5370
2023-04-18T10:32:11.520Z,35.5270
2023-04-18T10:33:25.754Z,35.5430
2023-04-18T10:34:13.843Z,35.5540
2023-04-18T10:35:16.106Z,35.5330
2023-04-18T10:36:18.315Z,35.5000
2023-04-18T10:37:20.534Z,35.4670
2023-04-18T10:38:22.741Z,35.4620
2023-04-18T10:39:25.105Z,35.4880
2023-04-18T10:40:27.203Z,35.4660
2023-04-18T10:41:29.490Z,35.4620
2023-04-18T10:42:30.561Z,35.5630
2023-04-18T10:43:30.680Z,35.6540
2023-04-18T10:44:32.911Z,35.6840
2023-04-18T10:45:35.154Z,35.7240
2023-04-18T10:46:37.547Z,35.7860
2023-04-18T10:47:39.903Z,35.8140
2023-04-18T10:48:41.865Z,35.8220
2023-04-18T10:49:44.117Z,35.8070
2023-04-18T10:50:46.382Z,35.7950
2023-04-18T10:51:48.654Z,35.7800
2023-04-18T10:52:50.861Z,35.7500
2023-04-18T10:53:53.126Z,35.7320
2023-04-18T10:54:57.642Z,35.7500
2023-04-18T10:55:57.559Z,35.7560
2023-04-18T10:56:59.815Z,35.7560
2023-04-18T10:58:02.028Z,35.7680
2023-04-18T10:59:04.242Z,35.7890
2023-04-18T11:00:06.492Z,35.7940
2023-04-18T11:01:08.758Z,35.8370
2023-04-18T11:02:11.006Z,35.8370
2023-04-18T11:03:13.325Z,35.8590
2023-04-18T11:04:15.815Z,35.8540
2023-04-18T11:05:17.561Z,35.8590
2023-04-18T11:06:19.805Z,35.8920
2023-04-18T11:07:22.012Z,35.9090
2023-04-18T11:08:24.259Z,35.9330
2023-04-18T11:09:24.320Z,35.9150
2023-04-18T11:10:26.756Z,35.8980
2023-04-18T11:11:28.740Z,35.8800
2023-04-18T11:12:30.955Z,35.8490
2023-04-18T11:13:33.209Z,35.8110
2023-04-18T11:14:33.336Z,35.7970
2023-04-18T11:15:35.581Z,35.7690
2023-04-18T11:16:37.900Z,35.7800
2023-04-18T11:17:40.387Z,35.7990
2023-04-18T11:18:40.173Z,35.8050
2023-04-18T11:19:42.397Z,35.8430
2023-04-18T11:20:44.627Z,35.8490
2023-04-18T11:21:46.820Z,35.8770
2023-04-18T11:22:49.107Z,35.8640
2023-04-18T11:23:49.136Z,35.8390
2023-04-18T11:24:51.322Z,35.8270
2023-04-18T11:25:53.648Z,35.7910
2023-04-18T11:26:56.097Z,35.7830
2023-04-18T11:27:58.031Z,35.7630
2023-04-18T11:28:58.136Z,35.7460
2023-04-18T11:30:00.425Z,35.7420
2023-04-18T11:31:02.675Z,35.7240
2023-04-18T11:32:04.941Z,35.7000
2023-04-18T11:33:05.059Z,35.7340
2023-04-18T11:34:07.220Z,35.7510
2023-04-18T11:35:09.464Z,35.7130
2023-04-18T11:36:11.673Z,35.6890
2023-04-18T11:37:13.921Z,35.6610
2023-04-18T11:38:16.190Z,35.6440
2023-04-18T11:39:18.360Z,35.6530
2023-04-18T11:40:20.581Z,35.5780
2023-04-18T11:41:22.867Z,35.5750
2023-04-18T11:42:22.895Z,35.6340
2023-04-18T11:43:25.140Z,35.6160
2023-04-18T11:44:27.280Z,35.5560
2023-04-18T11:45:29.461Z,35.4930
2023-04-18T11:46:31.759Z,35.5030
2023-04-18T11:47:34.013Z,35.5840
2023-04-18T11:48:36.147Z,35.5840
2023-04-18T11:49:38.367Z,35.6010
2023-04-18T11:50:40.600Z,35.5950
2023-04-18T11:51:42.818Z,35.5670
2023-04-18T11:52:45.012Z,35.5410
2023-04-18T11:53:47.194Z,35.4650
2023-04-18T11:54:49.303Z,35.4270
2023-04-18T11:55:51.501Z,35.4000
2023-04-18T11:56:53.761Z,35.4000
2023-04-18T11:57:55.936Z,35.3860
2023-04-18T11:58:58.136Z,35.3870
2023-04-18T12:00:00.349Z,35.4210
2023-04-18T12:01:02.573Z,35.4440
2023-04-18T12:03:05.017Z,35.5210
2023-04-18T12:04:07.420Z,35.5570
2023-04-18T12:05:09.715Z,35.5680
2023-04-18T12:06:11.697Z,35.4880
2023-04-18T12:07:13.867Z,35.5030
2023-04-18T12:08:16.149Z,35.5500
2023-04-18T12:09:18.432Z,35.5570
2023-04-18T12:10:18.553Z,35.5960
2023-04-18T12:11:20.765Z,35.5610
2023-04-18T12:12:23.056Z,35.5290
2023-04-18T12:13:25.254Z,35.4970
2023-04-18T12:14:27.512Z,35.5050
2023-04-18T12:15:29.695Z,35.4990
2023-04-18T12:16:31.970Z,35.4780
2023-04-18T12:17:34.194Z,35.4270
2023-04-18T12:18:36.432Z,35.4280
2023-04-18T12:19:38.658Z,35.4380
2023-04-18T12:20:40.890Z,35.4930
2023-04-18T12:21:43.105Z,35.4610
2023-04-18T12:22:45.340Z,35.3420
2023-04-18T12:23:47.560Z,35.2460
2023-04-18T12:24:49.847Z,35.1760
2023-04-18T12:25:52.063Z,35.1860
2023-04-18T12:26:54.263Z,35.1690
2023-04-18T12:27:54.504Z,35.1480
2023-04-18T12:28:56.615Z,35.1250
2023-04-18T12:29:58.906Z,35.1280
2023-04-18T12:31:01.137Z,35.1640
2023-04-18T12:32:03.331Z,35.1520
2023-04-18T12:33:05.649Z,35.1800
2023-04-18T12:34:07.809Z,35.1920
2023-04-18T12:35:10.063Z,35.1540
2023-04-18T12:36:10.140Z,35.0840
2023-04-18T12:37:12.358Z,35.0390
2023-04-18T12:38:14.553Z,34.9770
2023-04-18T12:39:16.795Z,34.9610
2023-04-18T12:40:19.170Z,34.9610
2023-04-18T12:41:19.068Z,34.9670
2023-04-18T12:42:21.283Z,34.9770
2023-04-18T12:43:23.516Z,35.0550
2023-04-18T12:44:25.686Z,35.1010
2023-04-18T12:45:27.977Z,35.0740
2023-04-18T12:46:28.173Z,35.0450
2023-04-18T12:47:30.350Z,35.0310
2023-04-18T12:48:32.545Z,34.9350
2023-04-18T12:49:34.814Z,34.9930
2023-04-18T12:50:37.107Z,34.9680
2023-04-18T12:51:39.353Z,34.9060
2023-04-18T12:52:41.646Z,34.9130
2023-04-18T12:53:43.864Z,34.8750
2023-04-18T12:54:43.969Z,34.8800
2023-04-18T12:55:46.223Z,34.8750
2023-04-18T12:56:48.468Z,34.8230
2023-04-18T12:57:50.728Z,34.7830
2023-04-18T12:58:50.967Z,34.7890
2023-04-18T12:59:53.146Z,34.7840
2023-04-18T13:00:55.428Z,34.7940
2023-04-18T13:01:57.629Z,34.8030
2023-04-18T13:03:00.163Z,34.7990
2023-04-18T13:04:11.728Z,34.8290
2023-04-18T13:05:04.507Z,34.8370
2023-04-18T13:06:58.343Z,34.6800
2023-04-18T13:08:12.770Z,34.5790
2023-04-18T13:09:02.593Z,34.5830
2023-04-18T13:10:04.807Z,34.5830
2023-04-18T13:11:07.034Z,34.6040
2023-04-18T13:12:09.367Z,34.6690
2023-04-18T13:13:11.484Z,34.6860
2023-04-18T13:14:13.986Z,34.6740
2023-04-18T13:15:15.932Z,34.6260